Time;durP1;ratioP1;P1;durP2;ratioP2;P2;SDS_P1;SDS_P2;PMS_P1;PMS_P2;Temp;Humidity;BMP_temperature;BMP_pressure;BME280_temperature;BME280_humidity;BME280_pressure;Samples;Min_cycle;Max_cycle;Signal;HPM_P1;HPM_P2
2023/12/28 00:00:08;;;;;;;9.23;3.30;;;;;;;;;;5066343;28;20051;-62
2023/12/28 00:02:33;;;;;;;13.10;3.13;;;;;;;;;;5072766;28;20017;-62
2023/12/28 00:04:59;;;;;;;9.60;2.97;;;;;;;;;;5073016;28;20041;-61
2023/12/28 00:07:24;;;;;;;10.25;3.60;;;;;;;;;;5070576;28;20451;-62
2023/12/28 00:09:49;;;;;;;6.67;2.80;;;;;;;;;;5070934;28;20811;-62
2023/12/28 00:12:14;;;;;;;9.77;3.33;;;;;;;;;;5072665;28;20044;-62
2023/12/28 00:14:39;;;;;;;9.40;3.28;;;;;;;;;;5072138;28;20043;-62
2023/12/28 00:17:04;;;;;;;8.25;2.65;;;;;;;;;;5068924;28;20040;-62
2023/12/28 00:19:29;;;;;;;8.67;3.00;;;;;;;;;;5069950;28;20104;-61
2023/12/28 00:21:55;;;;;;;7.78;2.85;;;;;;;;;;5066658;28;20024;-63
2023/12/28 00:24:20;;;;;;;12.15;3.17;;;;;;;;;;5070889;28;20024;-62
2023/12/28 00:26:45;;;;;;;9.85;2.88;;;;;;;;;;5072839;28;20028;-63
2023/12/28 00:29:10;;;;;;;8.13;2.90;;;;;;;;;;5072480;28;20031;-63
2023/12/28 00:31:36;;;;;;;10.20;2.83;;;;;;;;;;5065560;28;20039;-62
2023/12/28 00:34:01;;;;;;;8.10;2.63;;;;;;;;;;5071852;28;20063;-61
2023/12/28 00:36:26;;;;;;;8.90;3.05;;;;;;;;;;5073016;28;20557;-62
2023/12/28 00:38:52;;;;;;;8.83;3.00;;;;;;;;;;5075844;28;20474;-62
2023/12/28 00:41:17;;;;;;;9.90;2.70;;;;;;;;;;5076069;28;20024;-63
2023/12/28 00:43:42;;;;;;;9.40;3.00;;;;;;;;;;5070282;28;20036;-62
2023/12/28 00:46:07;;;;;;;8.85;2.88;;;;;;;;;;5066411;28;20028;-62
2023/12/28 00:48:32;;;;;;;10.50;3.20;;;;;;;;;;5069644;28;20436;-62
2023/12/28 00:51:00;;;;;;;7.22;2.83;;;;;;;;;;5068585;28;20048;-62
2023/12/28 00:53:26;;;;;;;7.68;2.90;;;;;;;;;;5071386;28;20045;-62
2023/12/28 00:55:51;;;;;;;9.00;2.97;;;;;;;;;;5065378;28;20056;-63
2023/12/28 00:58:16;;;;;;;9.67;2.70;;;;;;;;;;5056476;28;20025;-63
2023/12/28 01:00:41;;;;;;;7.70;2.53;;;;;;;;;;5052014;28;20041;-62
2023/12/28 01:03:07;;;;;;;8.55;2.50;;;;;;;;;;5055386;28;20035;-63
2023/12/28 01:05:32;;;;;;;6.22;2.50;;;;;;;;;;5070094;28;20046;-62
2023/12/28 01:07:57;;;;;;;9.10;2.87;;;;;;;;;;5071158;28;20397;-62
2023/12/28 01:10:22;;;;;;;7.47;2.30;;;;;;;;;;5055882;28;20029;-61
2023/12/28 01:12:47;;;;;;;8.23;2.43;;;;;;;;;;5054307;28;20075;-63
2023/12/28 01:15:12;;;;;;;10.38;2.60;;;;;;;;;;5070083;28;20028;-63
2023/12/28 01:17:38;;;;;;;9.03;2.60;;;;;;;;;;5066831;28;20025;-63
2023/12/28 01:20:03;;;;;;;7.10;2.70;;;;;;;;;;5062021;28;20490;-62
2023/12/28 01:22:29;;;;;;;6.85;2.92;;;;;;;;;;5058776;28;20043;-62
2023/12/28 01:24:54;;;;;;;8.43;2.58;;;;;;;;;;5066850;28;20067;-62
2023/12/28 01:27:19;;;;;;;8.40;3.13;;;;;;;;;;5061127;28;20405;-62
2023/12/28 01:29:44;;;;;;;7.90;2.63;;;;;;;;;;5050429;28;20025;-62
2023/12/28 01:32:09;;;;;;;9.55;2.80;;;;;;;;;;5060955;28;20078;-62
2023/12/28 01:34:34;;;;;;;7.87;2.70;;;;;;;;;;5066191;28;20062;-62
2023/12/28 01:36:59;;;;;;;6.55;2.47;;;;;;;;;;5069263;28;20525;-62
2023/12/28 01:39:25;;;;;;;8.57;2.60;;;;;;;;;;5068441;28;20048;-62
2023/12/28 01:41:50;;;;;;;8.13;2.40;;;;;;;;;;5065383;28;20028;-62
2023/12/28 01:44:15;;;;;;;7.10;2.47;;;;;;;;;;5052392;28;20392;-62
2023/12/28 01:46:40;;;;;;;7.20;2.45;;;;;;;;;;5051345;28;20060;-62
2023/12/28 01:49:05;;;;;;;7.67;2.30;;;;;;;;;;5057449;28;20045;-62
2023/12/28 01:51:31;;;;;;;8.03;2.40;;;;;;;;;;5058239;28;20021;-62
2023/12/28 01:53:57;;;;;;;7.90;2.15;;;;;;;;;;5070625;28;20032;-63
2023/12/28 01:56:22;;;;;;;7.57;2.67;;;;;;;;;;5063973;28;20027;-62
2023/12/28 01:58:49;;;;;;;10.05;2.47;;;;;;;;;;5066434;28;20024;-62
2023/12/28 02:01:14;;;;;;;9.50;2.80;;;;;;;;;;5055662;28;20021;-62
2023/12/28 02:03:39;;;;;;;8.15;2.40;;;;;;;;;;5057311;28;20020;-62
2023/12/28 02:06:06;;;;;;;7.90;2.40;;;;;;;;;;5065302;28;20028;-62
2023/12/28 02:08:31;;;;;;;;;;;;;;;;;;5072683;28;20095;-62
2023/12/28 02:10:56;;;;;;;7.22;2.60;;;;;;;;;;5077802;28;19977;-60
2023/12/28 02:13:22;;;;;;;6.80;2.78;;;;;;;;;;5071048;28;20369;-62
2023/12/28 02:15:48;;;;;;;10.63;2.70;;;;;;;;;;5070871;28;20024;-62
2023/12/28 02:18:13;;;;;;;;;;;;;;;;;;5061830;28;20369;-60
2023/12/28 02:20:39;;;;;;;7.78;2.65;;;;;;;;;;5064795;28;20296;-62
2023/12/28 02:23:04;;;;;;;7.17;2.43;;;;;;;;;;5067428;28;20036;-64
2023/12/28 02:25:29;;;;;;;7.17;2.73;;;;;;;;;;5058962;28;20103;-63
2023/12/28 02:27:54;;;;;;;9.48;3.17;;;;;;;;;;5057091;28;20043;-63
2023/12/28 02:30:24;;;;;;;8.57;2.83;;;;;;;;;;5064911;28;20029;-64
2023/12/28 02:33:07;;;;;;;9.05;2.30;;;;;;;;;;5070124;28;20066;-62
2023/12/28 02:35:33;;;;;;;10.45;2.85;;;;;;;;;;5070083;28;20078;-62
2023/12/28 02:38:01;;;;;;;7.90;3.00;;;;;;;;;;5069187;28;20020;-62
2023/12/28 02:40:27;;;;;;;6.47;2.50;;;;;;;;;;5067503;28;20031;-62
2023/12/28 02:42:52;;;;;;;7.97;2.30;;;;;;;;;;5064088;28;20023;-62
2023/12/28 02:45:18;;;;;;;6.93;2.27;;;;;;;;;;5061488;28;20016;-63
2023/12/28 02:47:44;;;;;;;7.55;2.67;;;;;;;;;;5069021;28;20036;-61
2023/12/28 02:50:09;;;;;;;10.75;2.60;;;;;;;;;;5049796;28;20550;-63
2023/12/28 02:52:34;;;;;;;6.03;1.93;;;;;;;;;;5049958;28;20017;-62
2023/12/28 02:54:59;;;;;;;5.87;2.10;;;;;;;;;;5070402;28;20469;-62
2023/12/28 02:57:24;;;;;;;8.63;2.70;;;;;;;;;;5065749;28;20017;-63
2023/12/28 02:59:49;;;;;;;5.68;2.20;;;;;;;;;;5068030;28;20056;-62
2023/12/28 03:02:15;;;;;;;6.60;2.10;;;;;;;;;;5061971;28;20518;-63
2023/12/28 03:04:40;;;;;;;6.63;2.30;;;;;;;;;;5057022;28;20040;-62
2023/12/28 03:07:06;;;;;;;5.47;2.08;;;;;;;;;;5067272;28;20095;-62
2023/12/28 03:09:31;;;;;;;8.57;2.00;;;;;;;;;;5050726;28;20025;-62
2023/12/28 03:11:56;;;;;;;7.28;2.20;;;;;;;;;;5065905;28;20025;-63
2023/12/28 03:14:21;;;;;;;8.20;2.10;;;;;;;;;;5064562;28;20009;-63
2023/12/28 03:16:47;;;;;;;5.60;2.25;;;;;;;;;;5064144;28;20025;-62
2023/12/28 03:19:12;;;;;;;6.43;2.00;;;;;;;;;;5066904;28;20068;-61
2023/12/28 03:21:40;;;;;;;4.80;1.70;;;;;;;;;;5078670;28;20032;-63
2023/12/28 03:24:06;;;;;;;5.40;1.83;;;;;;;;;;5076636;28;20017;-62
2023/12/28 03:26:31;;;;;;;6.30;2.00;;;;;;;;;;5058762;28;20031;-63
2023/12/28 03:28:56;;;;;;;7.15;1.83;;;;;;;;;;5073484;28;20625;-63
2023/12/28 03:31:21;;;;;;;5.55;1.75;;;;;;;;;;5069850;28;20019;-63
2023/12/28 03:33:46;;;;;;;6.70;2.00;;;;;;;;;;5072995;28;20098;-63
2023/12/28 03:36:19;;;;;;;6.38;1.98;;;;;;;;;;5060883;28;20032;-63
2023/12/28 03:38:44;;;;;;;;;;;;;;;;;;5072375;28;20082;-61
2023/12/28 03:41:18;;;;;;;6.75;1.92;;;;;;;;;;5073305;28;20002;-62
2023/12/28 03:43:44;;;;;;;7.65;2.50;;;;;;;;;;5062449;28;20393;-62
2023/12/28 03:46:09;;;;;;;5.90;1.90;;;;;;;;;;5067483;28;20120;-62
2023/12/28 03:48:35;;;;;;;7.70;2.40;;;;;;;;;;5066695;28;20364;-60
2023/12/28 03:51:00;;;;;;;6.57;2.65;;;;;;;;;;5066181;28;20690;-61
2023/12/28 03:53:26;;;;;;;6.03;2.10;;;;;;;;;;5066848;28;20155;-61
2023/12/28 03:55:51;;;;;;;6.13;2.47;;;;;;;;;;5053453;28;20051;-63
2023/12/28 03:58:16;;;;;;;7.38;2.28;;;;;;;;;;5053225;28;20025;-62
2023/12/28 04:00:41;;;;;;;8.23;2.80;;;;;;;;;;5067746;28;20028;-63
2023/12/28 04:03:06;;;;;;;7.22;2.10;;;;;;;;;;5072534;28;20021;-63
2023/12/28 04:05:31;;;;;;;6.47;2.25;;;;;;;;;;5055970;28;20071;-62
2023/12/28 04:07:56;;;;;;;7.77;2.80;;;;;;;;;;5066632;28;20020;-63
2023/12/28 04:10:29;;;;;;;8.23;2.60;;;;;;;;;;5061053;28;20056;-63
2023/12/28 04:12:57;;;;;;;5.72;2.35;;;;;;;;;;5058708;28;20461;-62
2023/12/28 04:15:22;;;;;;;7.00;2.42;;;;;;;;;;5066045;28;20800;-62
2023/12/28 04:17:47;;;;;;;8.40;2.30;;;;;;;;;;5071329;28;20048;-62
2023/12/28 04:20:12;;;;;;;7.45;2.53;;;;;;;;;;5069755;28;20066;-62
2023/12/28 04:22:38;;;;;;;6.37;2.43;;;;;;;;;;5070723;28;20013;-62
2023/12/28 04:25:03;;;;;;;7.97;2.40;;;;;;;;;;5072240;28;20039;-62
2023/12/28 04:27:28;;;;;;;6.40;2.27;;;;;;;;;;5056810;28;20029;-61
2023/12/28 04:29:53;;;;;;;5.97;2.10;;;;;;;;;;5060257;28;21053;-61
2023/12/28 04:32:18;;;;;;;7.00;2.40;;;;;;;;;;5071965;28;20473;-62
2023/12/28 04:34:43;;;;;;;8.35;2.22;;;;;;;;;;5066191;28;20049;-63
2023/12/28 04:37:09;;;;;;;5.77;1.90;;;;;;;;;;5066318;28;20025;-62
2023/12/28 04:39:34;;;;;;;7.03;2.17;;;;;;;;;;5058909;28;20036;-62
2023/12/28 04:41:59;;;;;;;5.63;2.10;;;;;;;;;;5068276;28;20021;-62
2023/12/28 04:44:25;;;;;;;7.15;2.08;;;;;;;;;;5067839;28;20108;-63
2023/12/28 04:46:50;;;;;;;6.72;2.20;;;;;;;;;;5060331;28;20048;-62
2023/12/28 04:49:16;;;;;;;5.13;1.90;;;;;;;;;;5070987;28;20093;-63
2023/12/28 04:51:44;;;;;;;7.80;2.67;;;;;;;;;;5070723;28;20024;-63
2023/12/28 04:54:09;;;;;;;8.48;2.60;;;;;;;;;;5060456;28;20027;-62
2023/12/28 04:56:34;;;;;;;9.05;1.92;;;;;;;;;;5057852;28;20017;-62
2023/12/28 04:58:59;;;;;;;5.97;1.77;;;;;;;;;;5072621;28;20063;-62
2023/12/28 05:01:24;;;;;;;6.40;1.83;;;;;;;;;;5072243;28;20032;-62
2023/12/28 05:03:49;;;;;;;5.33;1.63;;;;;;;;;;5072777;28;20020;-63
2023/12/28 05:06:15;;;;;;;6.28;2.03;;;;;;;;;;5076341;28;20031;-62
2023/12/28 05:08:40;;;;;;;5.75;1.83;;;;;;;;;;5074115;28;20092;-62
2023/12/28 05:11:05;;;;;;;6.97;2.10;;;;;;;;;;5070444;28;20024;-62
2023/12/28 05:13:30;;;;;;;5.50;2.00;;;;;;;;;;5063465;28;20078;-63
2023/12/28 05:15:55;;;;;;;6.78;1.92;;;;;;;;;;5066086;28;20024;-61
2023/12/28 05:18:20;;;;;;;5.90;2.33;;;;;;;;;;5059596;28;20078;-62
2023/12/28 05:20:45;;;;;;;5.80;1.60;;;;;;;;;;5071506;28;20016;-62
2023/12/28 05:23:11;;;;;;;4.70;1.70;;;;;;;;;;5071661;28;20032;-62
2023/12/28 05:25:36;;;;;;;6.90;1.83;;;;;;;;;;5071827;28;20040;-62
2023/12/28 05:28:01;;;;;;;5.90;2.13;;;;;;;;;;5066778;28;20021;-62
2023/12/28 05:30:26;;;;;;;4.65;1.77;;;;;;;;;;5055408;28;20047;-62
2023/12/28 05:32:51;;;;;;;4.80;1.60;;;;;;;;;;5069844;28;20024;-63
2023/12/28 05:35:16;;;;;;;5.77;2.17;;;;;;;;;;5070029;28;20028;-60
2023/12/28 05:37:41;;;;;;;6.55;1.80;;;;;;;;;;5069371;28;20028;-61
2023/12/28 05:40:09;;;;;;;5.72;1.75;;;;;;;;;;5056448;28;20052;-63
2023/12/28 05:42:34;;;;;;;5.38;1.80;;;;;;;;;;5062400;28;20039;-63
2023/12/28 05:44:59;;;;;;;5.43;2.15;;;;;;;;;;5052838;28;20021;-63
2023/12/28 05:47:24;;;;;;;4.85;1.60;;;;;;;;;;5061707;28;20020;-61
2023/12/28 05:49:50;;;;;;;4.90;1.92;;;;;;;;;;5069283;28;20059;-61
2023/12/28 05:52:16;;;;;;;5.17;2.03;;;;;;;;;;5070547;28;20044;-63
2023/12/28 05:54:43;;;;;;;6.43;1.83;;;;;;;;;;5067222;28;20017;-63
2023/12/28 05:57:08;;;;;;;5.90;2.10;;;;;;;;;;5058396;28;20017;-62
2023/12/28 05:59:37;;;;;;;6.57;2.10;;;;;;;;;;5069538;28;20032;-62
2023/12/28 06:02:03;;;;;;;5.53;2.00;;;;;;;;;;5065317;28;20831;-63
2023/12/28 06:04:28;;;;;;;6.45;2.17;;;;;;;;;;5060536;28;20094;-63
2023/12/28 06:06:53;;;;;;;4.72;1.88;;;;;;;;;;5054097;28;20655;-62
2023/12/28 06:09:18;;;;;;;6.57;1.98;;;;;;;;;;5057033;28;20043;-61
2023/12/28 06:11:43;;;;;;;5.05;1.90;;;;;;;;;;5068897;28;20028;-61
2023/12/28 06:14:08;;;;;;;4.90;2.00;;;;;;;;;;5067214;28;20500;-61
2023/12/28 06:16:34;;;;;;;7.23;2.00;;;;;;;;;;5062433;28;20031;-62
2023/12/28 06:19:00;;;;;;;5.38;2.13;;;;;;;;;;5068860;28;20128;-63
2023/12/28 06:21:25;;;;;;;4.80;1.98;;;;;;;;;;5059081;28;20025;-62
2023/12/28 06:23:50;;;;;;;7.00;2.22;;;;;;;;;;5052442;28;20401;-63
2023/12/28 06:26:15;;;;;;;5.60;1.88;;;;;;;;;;5052148;28;20028;-62
2023/12/28 06:28:40;;;;;;;6.00;2.00;;;;;;;;;;5062297;28;20070;-62
2023/12/28 06:31:05;;;;;;;5.20;2.08;;;;;;;;;;5061417;28;20440;-62
2023/12/28 06:33:31;;;;;;;7.78;2.38;;;;;;;;;;5060853;28;20025;-62
2023/12/28 06:35:58;;;;;;;5.80;1.83;;;;;;;;;;5059752;28;20055;-63
2023/12/28 06:38:23;;;;;;;5.53;2.08;;;;;;;;;;5059530;28;20055;-62
2023/12/28 06:40:48;;;;;;;6.50;2.10;;;;;;;;;;5067754;28;20056;-62
2023/12/28 06:43:13;;;;;;;5.55;2.20;;;;;;;;;;5060036;28;20454;-62
2023/12/28 06:45:38;;;;;;;7.03;2.30;;;;;;;;;;5066899;28;20028;-63
2023/12/28 06:48:04;;;;;;;6.73;2.47;;;;;;;;;;5062639;28;20024;-63
2023/12/28 06:50:29;;;;;;;6.60;2.60;;;;;;;;;;5062062;28;20771;-63
2023/12/28 06:52:54;;;;;;;6.65;2.50;;;;;;;;;;5065092;28;20777;-60
2023/12/28 06:55:20;;;;;;;6.53;2.58;;;;;;;;;;5065627;28;20029;-61
2023/12/28 06:57:45;;;;;;;6.43;2.03;;;;;;;;;;5058888;28;20496;-62
2023/12/28 07:00:10;;;;;;;6.35;2.25;;;;;;;;;;5056798;28;20029;-60
2023/12/28 07:02:35;;;;;;;6.20;2.03;;;;;;;;;;5062413;28;20036;-61
2023/12/28 07:05:01;;;;;;;5.43;2.00;;;;;;;;;;5049325;28;20480;-62
2023/12/28 07:07:26;;;;;;;6.20;1.88;;;;;;;;;;5056661;28;20515;-62
2023/12/28 07:09:51;;;;;;;3.75;1.05;;;;;;;;;;5068947;28;20056;-62
2023/12/28 07:12:16;;;;;;;4.03;1.00;;;;;;;;;;5058661;28;20025;-63
2023/12/28 07:14:41;;;;;;;4.27;1.10;;;;;;;;;;5051236;28;20700;-62
2023/12/28 07:17:06;;;;;;;3.37;1.13;;;;;;;;;;5064721;28;20105;-63
2023/12/28 07:19:31;;;;;;;4.88;1.08;;;;;;;;;;5068477;28;20024;-62
2023/12/28 07:21:57;;;;;;;4.18;1.20;;;;;;;;;;5061278;28;20029;-62
2023/12/28 07:24:22;;;;;;;3.90;1.10;;;;;;;;;;5059250;28;20050;-62
2023/12/28 07:26:48;;;;;;;3.63;1.25;;;;;;;;;;5056724;28;20075;-63
2023/12/28 07:29:13;;;;;;;3.83;1.10;;;;;;;;;;5059605;28;20037;-62
2023/12/28 07:31:38;;;;;;;5.63;1.25;;;;;;;;;;5063392;28;20532;-62
2023/12/28 07:34:03;;;;;;;3.38;1.00;;;;;;;;;;5055610;28;20017;-62
2023/12/28 07:36:29;;;;;;;3.47;1.05;;;;;;;;;;5064323;28;20147;-62
2023/12/28 07:38:54;;;;;;;5.22;1.25;;;;;;;;;;5063836;28;20107;-62
2023/12/28 07:41:19;;;;;;;4.00;1.20;;;;;;;;;;5058683;28;20025;-62
2023/12/28 07:43:44;;;;;;;3.80;1.10;;;;;;;;;;5062974;28;20581;-62
2023/12/28 07:46:10;;;;;;;2.88;0.90;;;;;;;;;;5055154;28;20029;-61
2023/12/28 07:48:35;;;;;;;2.57;0.90;;;;;;;;;;5057707;28;20020;-62
2023/12/28 07:51:06;;;;;;;4.22;1.30;;;;;;;;;;5066915;28;20024;-63
2023/12/28 07:53:32;;;;;;;3.22;1.10;;;;;;;;;;5058843;28;20020;-62
2023/12/28 07:55:57;;;;;;;4.25;1.27;;;;;;;;;;5066384;28;20078;-61
2023/12/28 07:58:22;;;;;;;4.70;1.30;;;;;;;;;;5064867;28;20036;-62
2023/12/28 08:00:47;;;;;;;4.97;1.27;;;;;;;;;;5060369;28;20021;-62
2023/12/28 08:03:15;;;;;;;3.57;1.10;;;;;;;;;;5064892;28;20063;-63
2023/12/28 08:05:40;;;;;;;5.07;1.20;;;;;;;;;;5066850;28;20087;-63
2023/12/28 08:08:05;;;;;;;5.13;1.33;;;;;;;;;;5069092;28;20104;-62
2023/12/28 08:10:31;;;;;;;3.72;1.10;;;;;;;;;;5066558;28;20468;-62
2023/12/28 08:12:56;;;;;;;4.60;1.30;;;;;;;;;;5063877;28;20043;-63
2023/12/28 08:15:21;;;;;;;3.03;0.93;;;;;;;;;;5068462;28;20052;-63
2023/12/28 08:17:46;;;;;;;4.85;1.33;;;;;;;;;;5076592;28;20046;-62
2023/12/28 08:20:11;;;;;;;5.47;1.27;;;;;;;;;;5072394;28;20025;-61
2023/12/28 08:22:36;;;;;;;4.87;1.40;;;;;;;;;;5064797;28;20029;-62
2023/12/28 08:25:01;;;;;;;5.75;1.30;;;;;;;;;;5058571;28;20044;-63
2023/12/28 08:27:27;;;;;;;2.83;1.00;;;;;;;;;;5062489;28;20096;-63
2023/12/28 08:29:52;;;;;;;3.72;1.38;;;;;;;;;;5062917;28;20069;-61
2023/12/28 08:32:17;;;;;;;5.33;1.33;;;;;;;;;;5068318;28;20032;-62
2023/12/28 08:34:42;;;;;;;3.47;0.93;;;;;;;;;;5064387;28;21319;-61
2023/12/28 08:37:07;;;;;;;3.03;1.13;;;;;;;;;;5067272;28;20020;-61
2023/12/28 08:39:32;;;;;;;3.92;1.10;;;;;;;;;;5062765;28;20439;-67
2023/12/28 08:41:58;;;;;;;3.77;1.10;;;;;;;;;;5069481;28;20024;-63
2023/12/28 08:44:23;;;;;;;3.40;1.20;;;;;;;;;;5068121;28;20024;-63
2023/12/28 08:46:48;;;;;;;4.00;0.98;;;;;;;;;;5061182;28;20523;-62
2023/12/28 08:49:15;;;;;;;4.23;1.10;;;;;;;;;;5065968;28;20044;-63
2023/12/28 08:51:40;;;;;;;4.03;1.30;;;;;;;;;;5069848;28;20438;-62
2023/12/28 08:54:05;;;;;;;3.33;1.03;;;;;;;;;;5065477;28;20020;-63
2023/12/28 08:56:30;;;;;;;3.37;0.93;;;;;;;;;;5071258;28;20108;-63
2023/12/28 08:58:56;;;;;;;3.40;1.00;;;;;;;;;;5066596;28;20021;-63
2023/12/28 09:01:22;;;;;;;3.35;0.93;;;;;;;;;;5078687;28;20013;-62
2023/12/28 09:03:48;;;;;;;2.80;0.93;;;;;;;;;;5061612;28;20048;-62
2023/12/28 09:06:13;;;;;;;4.15;1.20;;;;;;;;;;5070132;28;20250;-63
2023/12/28 09:08:41;;;;;;;2.83;1.00;;;;;;;;;;5066072;28;20028;-62
2023/12/28 09:11:06;;;;;;;4.13;1.05;;;;;;;;;;5056348;28;20041;-63
2023/12/28 09:13:31;;;;;;;2.80;0.93;;;;;;;;;;5069740;28;20020;-62
2023/12/28 09:15:56;;;;;;;4.00;1.00;;;;;;;;;;5064290;28;20043;-62
2023/12/28 09:18:21;;;;;;;3.97;1.17;;;;;;;;;;5070963;28;20016;-61
2023/12/28 09:20:48;;;;;;;3.33;1.10;;;;;;;;;;5064296;28;20058;-60
2023/12/28 09:23:14;;;;;;;4.07;1.30;;;;;;;;;;5064437;28;20499;-63
2023/12/28 09:25:39;;;;;;;3.03;1.10;;;;;;;;;;5063297;28;20032;-63
2023/12/28 09:28:05;;;;;;;3.42;1.20;;;;;;;;;;5065249;28;20035;-62
2023/12/28 09:30:30;;;;;;;3.25;1.10;;;;;;;;;;5065945;28;20074;-63
2023/12/28 09:32:55;;;;;;;4.07;1.57;;;;;;;;;;5065634;28;20032;-61
2023/12/28 09:35:20;;;;;;;3.40;1.08;;;;;;;;;;5057388;28;20964;-61
2023/12/28 09:37:47;;;;;;;4.03;1.23;;;;;;;;;;5061594;28;20044;-61
2023/12/28 09:40:12;;;;;;;3.65;1.10;;;;;;;;;;5068148;28;20489;-63
2023/12/28 09:42:48;;;;;;;3.70;1.17;;;;;;;;;;5064781;28;20131;-63
2023/12/28 09:45:14;;;;;;;3.67;1.20;;;;;;;;;;5070685;28;20477;-61
2023/12/28 09:47:40;;;;;;;4.25;1.08;;;;;;;;;;5070905;28;20021;-61
2023/12/28 09:50:06;;;;;;;3.35;1.00;;;;;;;;;;5065356;28;20040;-63
2023/12/28 09:52:31;;;;;;;3.70;1.30;;;;;;;;;;5065949;28;20388;-63
2023/12/28 09:54:56;;;;;;;3.80;1.20;;;;;;;;;;5062464;28;20366;-64
2023/12/28 09:57:21;;;;;;;3.45;1.00;;;;;;;;;;5067576;28;20039;-65
2023/12/28 09:59:46;;;;;;;3.47;1.08;;;;;;;;;;5069301;28;20036;-64
2023/12/28 10:02:12;;;;;;;3.47;1.05;;;;;;;;;;5067745;28;20029;-65
2023/12/28 10:04:37;;;;;;;10.10;1.20;;;;;;;;;;5063518;28;20492;-65
2023/12/28 10:07:02;;;;;;;3.70;1.00;;;;;;;;;;5065097;28;20120;-65
2023/12/28 10:09:28;;;;;;;3.63;1.00;;;;;;;;;;5057982;28;20095;-66
2023/12/28 10:11:54;;;;;;;4.90;1.15;;;;;;;;;;5058914;28;20064;-65
2023/12/28 10:14:19;;;;;;;4.20;0.90;;;;;;;;;;5069303;28;20031;-65
2023/12/28 10:16:44;;;;;;;6.50;1.02;;;;;;;;;;5072856;28;20652;-64
2023/12/28 10:19:10;;;;;;;4.43;1.10;;;;;;;;;;5062116;28;20036;-65
2023/12/28 10:21:35;;;;;;;4.20;1.10;;;;;;;;;;5066131;28;20489;-65
2023/12/28 10:24:01;;;;;;;5.10;1.20;;;;;;;;;;5071419;28;20090;-65
2023/12/28 10:26:28;;;;;;;;;;;;;;;;;;5067196;28;20017;-65
2023/12/28 10:28:57;;;;;;;4.75;1.38;;;;;;;;;;5064006;28;19912;-65
2023/12/28 10:31:22;;;;;;;4.35;1.13;;;;;;;;;;5069222;28;20099;-64
2023/12/28 10:33:47;;;;;;;4.68;1.00;;;;;;;;;;5066749;28;20527;-65
2023/12/28 10:36:14;;;;;;;3.38;1.20;;;;;;;;;;5058687;28;20021;-65
2023/12/28 10:38:40;;;;;;;3.55;1.20;;;;;;;;;;5065755;28;20023;-65
2023/12/28 10:41:09;;;;;;;4.07;1.08;;;;;;;;;;5063234;28;20131;-65
2023/12/28 10:44:07;;;;;;;4.70;1.05;;;;;;;;;;5058565;28;20099;-65
2023/12/28 10:46:36;;;;;;;2.67;0.98;;;;;;;;;;5016717;28;20040;-65
2023/12/28 10:49:05;;;;;;;3.20;1.00;;;;;;;;;;5067723;28;20024;-65
2023/12/28 10:51:34;;;;;;;3.53;1.35;;;;;;;;;;5063689;28;20017;-66
2023/12/28 10:54:09;;;;;;;3.15;1.02;;;;;;;;;;5068562;28;20031;-65
2023/12/28 10:56:39;;;;;;;3.38;1.10;;;;;;;;;;5073604;28;20546;-65
2023/12/28 10:59:04;;;;;;;2.83;1.10;;;;;;;;;;5082748;28;20092;-64
2023/12/28 11:01:31;;;;;;;4.05;1.38;;;;;;;;;;5075113;28;20051;-63
2023/12/28 11:04:01;;;;;;;3.20;1.00;;;;;;;;;;5070867;28;20442;-49
2023/12/28 11:06:28;;;;;;;3.67;1.00;;;;;;;;;;5068770;28;20024;-62
2023/12/28 11:08:54;;;;;;;;;;;;;;;;;;5061181;28;20021;-62
2023/12/28 11:11:19;;;;;;;2.90;0.90;;;;;;;;;;5069273;28;19905;-62
2023/12/28 11:13:45;;;;;;;3.92;1.10;;;;;;;;;;5060641;28;20507;-62
2023/12/28 11:16:10;;;;;;;2.83;1.00;;;;;;;;;;5057163;28;20032;-62
2023/12/28 11:18:35;;;;;;;3.78;1.40;;;;;;;;;;5064064;28;20036;-62
2023/12/28 11:21:00;;;;;;;3.37;1.10;;;;;;;;;;5067170;28;20021;-62
2023/12/28 11:23:26;;;;;;;3.13;0.90;;;;;;;;;;5071707;28;20494;-63
2023/12/28 11:25:51;;;;;;;4.40;1.40;;;;;;;;;;5085151;28;20530;-61
2023/12/28 11:28:16;;;;;;;5.57;1.10;;;;;;;;;;5083659;28;20032;-61
2023/12/28 11:30:42;;;;;;;2.37;0.90;;;;;;;;;;5083187;28;20075;-62
2023/12/28 11:33:09;;;;;;;2.90;0.85;;;;;;;;;;5076001;28;20025;-61
2023/12/28 11:35:36;;;;;;;4.28;1.00;;;;;;;;;;5068867;28;20056;-63
2023/12/28 11:38:06;;;;;;;3.05;1.10;;;;;;;;;;5073261;28;20033;-63
2023/12/28 11:40:31;;;;;;;3.58;1.13;;;;;;;;;;5069579;28;20054;-61
2023/12/28 11:42:56;;;;;;;3.10;1.20;;;;;;;;;;5080164;28;20111;-63
2023/12/28 11:45:22;;;;;;;5.13;1.67;;;;;;;;;;5074646;28;20044;-64
2023/12/28 11:47:47;;;;;;;4.97;1.98;;;;;;;;;;5074415;28;20071;-64
2023/12/28 11:50:13;;;;;;;6.63;2.53;;;;;;;;;;5063269;28;20048;-64
2023/12/28 11:52:38;;;;;;;5.78;2.28;;;;;;;;;;5068205;28;20019;-64
2023/12/28 11:55:04;;;;;;;5.20;1.73;;;;;;;;;;5074813;28;20047;-63
2023/12/28 11:57:29;;;;;;;3.78;1.40;;;;;;;;;;5072890;28;20388;-62
2023/12/28 11:59:55;;;;;;;4.27;1.20;;;;;;;;;;5070554;28;20032;-64
2023/12/28 12:02:21;;;;;;;4.07;1.20;;;;;;;;;;5073428;28;21268;-63
2023/12/28 12:04:46;;;;;;;4.67;1.30;;;;;;;;;;5072853;28;20032;-63
2023/12/28 12:07:11;;;;;;;5.75;1.58;;;;;;;;;;5074357;28;20434;-63
2023/12/28 12:09:36;;;;;;;3.80;1.30;;;;;;;;;;5069511;28;20036;-63
2023/12/28 12:12:01;;;;;;;4.77;1.23;;;;;;;;;;5068205;28;20772;-62
2023/12/28 12:14:28;;;;;;;4.45;1.20;;;;;;;;;;5072144;28;20059;-63
2023/12/28 12:16:55;;;;;;;5.57;1.60;;;;;;;;;;5071352;28;20029;-63
2023/12/28 12:19:20;;;;;;;3.20;1.05;;;;;;;;;;5067105;28;20021;-63
2023/12/28 12:21:47;;;;;;;3.10;1.10;;;;;;;;;;5066582;28;20025;-63
2023/12/28 12:24:13;;;;;;;3.38;1.10;;;;;;;;;;5074044;28;20020;-63
2023/12/28 12:26:38;;;;;;;3.17;1.00;;;;;;;;;;5074191;28;20023;-63
2023/12/28 12:29:03;;;;;;;3.35;1.00;;;;;;;;;;5075619;28;20034;-63
2023/12/28 12:31:28;;;;;;;3.53;1.20;;;;;;;;;;5068614;28;20369;-63
2023/12/28 12:33:54;;;;;;;2.73;0.83;;;;;;;;;;5068291;28;20020;-63
2023/12/28 12:36:19;;;;;;;3.27;1.10;;;;;;;;;;5071392;28;20024;-64
2023/12/28 12:38:44;;;;;;;3.37;1.07;;;;;;;;;;5072531;28;20021;-63
2023/12/28 12:41:12;;;;;;;3.07;1.07;;;;;;;;;;5072431;28;20024;-63
2023/12/28 12:43:37;;;;;;;4.30;1.30;;;;;;;;;;5071071;28;20162;-63
2023/12/28 12:46:04;;;;;;;3.13;0.97;;;;;;;;;;5068656;28;20040;-64
2023/12/28 12:48:30;;;;;;;2.50;0.90;;;;;;;;;;5072511;28;20411;-63
2023/12/28 12:50:55;;;;;;;3.88;1.10;;;;;;;;;;5069899;28;20043;-64
2023/12/28 12:53:21;;;;;;;4.32;1.17;;;;;;;;;;5068337;28;20009;-63
2023/12/28 12:55:46;;;;;;;3.95;1.10;;;;;;;;;;5066902;28;20020;-63
2023/12/28 12:58:16;;;;;;;2.75;0.98;;;;;;;;;;5072284;28;20023;-64
2023/12/28 13:00:41;;;;;;;3.88;1.20;;;;;;;;;;5070905;28;20024;-64
2023/12/28 13:03:10;;;;;;;3.70;1.00;;;;;;;;;;5070524;28;20487;-64
2023/12/28 13:05:38;;;;;;;4.25;1.05;;;;;;;;;;5071722;28;20017;-63
2023/12/28 13:08:04;;;;;;;2.72;0.85;;;;;;;;;;5072525;28;20468;-64
2023/12/28 13:10:29;;;;;;;2.88;0.90;;;;;;;;;;5072159;28;20077;-64
2023/12/28 13:12:54;;;;;;;2.83;1.00;;;;;;;;;;5070363;28;20498;-63
2023/12/28 13:15:19;;;;;;;2.47;0.80;;;;;;;;;;5061217;28;20136;-63
2023/12/28 13:17:44;;;;;;;3.20;0.90;;;;;;;;;;5070863;28;20024;-64
2023/12/28 13:20:10;;;;;;;3.72;1.00;;;;;;;;;;5063432;28;20215;-63
2023/12/28 13:22:35;;;;;;;2.95;0.90;;;;;;;;;;5070795;28;20388;-64
2023/12/28 13:25:01;;;;;;;2.72;1.00;;;;;;;;;;5069874;28;20032;-63
2023/12/28 13:27:28;;;;;;;3.42;0.90;;;;;;;;;;5071531;28;20099;-63
2023/12/28 13:29:53;;;;;;;3.58;0.90;;;;;;;;;;5071785;28;20032;-64
2023/12/28 13:32:18;;;;;;;3.37;1.10;;;;;;;;;;5071168;28;20070;-63
2023/12/28 13:34:43;;;;;;;3.50;1.00;;;;;;;;;;5061963;28;20027;-62
2023/12/28 13:37:08;;;;;;;3.38;1.40;;;;;;;;;;5069917;28;20052;-63
2023/12/28 13:39:38;;;;;;;4.87;1.10;;;;;;;;;;5053064;28;20029;-64
2023/12/28 13:42:03;;;;;;;3.20;1.02;;;;;;;;;;5057974;28;20036;-64
2023/12/28 13:44:29;;;;;;;2.95;1.00;;;;;;;;;;5069922;28;20077;-63
2023/12/28 13:46:54;;;;;;;2.40;0.80;;;;;;;;;;5082675;28;20066;-64
2023/12/28 13:49:19;;;;;;;3.13;0.90;;;;;;;;;;5078475;28;20033;-64
2023/12/28 13:51:46;;;;;;;4.25;1.10;;;;;;;;;;5076652;28;20472;-63
2023/12/28 13:54:11;;;;;;;;;;;;;;;;;;5078926;28;20038;-64
2023/12/28 13:56:36;;;;;;;4.03;1.00;;;;;;;;;;5080557;28;19967;-63
2023/12/28 13:59:01;;;;;;;2.87;1.10;;;;;;;;;;5075820;28;20043;-64
2023/12/28 14:01:26;;;;;;;3.67;1.10;;;;;;;;;;5068696;28;20472;-64
2023/12/28 14:03:51;;;;;;;2.60;0.88;;;;;;;;;;5071022;28;20016;-64
2023/12/28 14:06:17;;;;;;;4.57;1.10;;;;;;;;;;5072083;28;20054;-63
2023/12/28 14:08:42;;;;;;;3.42;1.10;;;;;;;;;;5071865;28;20447;-64
2023/12/28 14:11:07;;;;;;;3.38;1.10;;;;;;;;;;5071938;28;20033;-64
2023/12/28 14:13:35;;;;;;;3.63;1.10;;;;;;;;;;5063319;28;20070;-64
2023/12/28 14:16:00;;;;;;;3.65;0.93;;;;;;;;;;5062124;28;20491;-64
2023/12/28 14:18:25;;;;;;;3.72;1.10;;;;;;;;;;5069822;28;20017;-64
2023/12/28 14:20:50;;;;;;;2.78;0.80;;;;;;;;;;5070576;28;20463;-64
2023/12/28 14:23:17;;;;;;;2.57;0.80;;;;;;;;;;5071718;28;20032;-64
2023/12/28 14:25:42;;;;;;;2.83;0.82;;;;;;;;;;5068735;28;20112;-65
2023/12/28 14:28:08;;;;;;;4.80;1.00;;;;;;;;;;5063002;28;20088;-64
2023/12/28 14:30:33;;;;;;;3.35;1.00;;;;;;;;;;5066932;28;20060;-64
2023/12/28 14:32:58;;;;;;;2.90;0.90;;;;;;;;;;5057818;28;20039;-64
2023/12/28 14:35:25;;;;;;;3.90;0.90;;;;;;;;;;5068491;28;20981;-63